Amalga, Utah
Current Conditions -  °F | °C
As of 1:51 PM on Thursday 23 Oct 2014 (Local Time) from KLGU Reporting Station
Clear Clear  
Wind Chill: 62°   Ceiling: Unl
Heat Index: 62°   Visibility: 10mi
Dew Point: 32°   Wind: 6mph
Humidity: 32%   Direction: 360°N
Pressure: 30.12"   Gusts: NA
Location:  41.8466°N, 111.898°W
Report Text: KLGU 231951Z AUTO 36005KT 10SM CLR 17/00 A3012 RMK AO2 SLP186 T01670000 TSNO
Loading
Personal Weather Stations






























Interactive Weather Map New forecast layout! Learn more

10-Day Weather Forecast

Advertisements
Track Severe Weather on mobile